sensor_id;sensor_type;location;lat;lon;timestamp;P1;durP1;ratioP1;P2;durP2;ratioP2
15764;SDS011;7983;50.744;7.086;2022-12-29T00:00:13;0.40;;;0.40;;
15764;SDS011;7983;50.744;7.086;2022-12-29T00:02:39;0.75;;;0.60;;
15764;SDS011;7983;50.744;7.086;2022-12-29T00:05:07;0.43;;;0.35;;
15764;SDS011;7983;50.744;7.086;2022-12-29T00:07:32;0.70;;;0.45;;
15764;SDS011;7983;50.744;7.086;2022-12-29T00:09:58;0.45;;;0.38;;
15764;SDS011;7983;50.744;7.086;2022-12-29T00:12:23;1.08;;;0.70;;
15764;SDS011;7983;50.744;7.086;2022-12-29T00:15:09;0.45;;;0.40;;
15764;SDS011;7983;50.744;7.086;2022-12-29T00:17:53;0.70;;;0.40;;
15764;SDS011;7983;50.744;7.086;2022-12-29T00:20:21;0.40;;;0.30;;
15764;SDS011;7983;50.744;7.086;2022-12-29T00:23:05;0.60;;;0.50;;
15764;SDS011;7983;50.744;7.086;2022-12-29T00:25:51;0.90;;;0.60;;
15764;SDS011;7983;50.744;7.086;2022-12-29T00:28:35;1.02;;;0.70;;
15764;SDS011;7983;50.744;7.086;2022-12-29T00:31:22;0.63;;;0.30;;
15764;SDS011;7983;50.744;7.086;2022-12-29T00:34:07;0.57;;;0.40;;
15764;SDS011;7983;50.744;7.086;2022-12-29T00:36:56;0.50;;;0.40;;
15764;SDS011;7983;50.744;7.086;2022-12-29T00:39:22;0.63;;;0.40;;
15764;SDS011;7983;50.744;7.086;2022-12-29T00:42:07;0.50;;;0.40;;
15764;SDS011;7983;50.744;7.086;2022-12-29T00:44:54;0.30;;;0.30;;
15764;SDS011;7983;50.744;7.086;2022-12-29T00:47:20;0.17;;;0.17;;
15764;SDS011;7983;50.744;7.086;2022-12-29T00:49:48;0.95;;;0.30;;
15764;SDS011;7983;50.744;7.086;2022-12-29T00:52:13;0.40;;;0.38;;
15764;SDS011;7983;50.744;7.086;2022-12-29T00:54:39;0.30;;;0.30;;
15764;SDS011;7983;50.744;7.086;2022-12-29T00:57:12;0.82;;;0.25;;
15764;SDS011;7983;50.744;7.086;2022-12-29T00:59:39;0.30;;;0.30;;
15764;SDS011;7983;50.744;7.086;2022-12-29T01:02:09;0.25;;;0.20;;
15764;SDS011;7983;50.744;7.086;2022-12-29T01:04:37;0.40;;;0.22;;
15764;SDS011;7983;50.744;7.086;2022-12-29T01:07:03;0.30;;;0.30;;
15764;SDS011;7983;50.744;7.086;2022-12-29T01:09:31;0.43;;;0.30;;
15764;SDS011;7983;50.744;7.086;2022-12-29T01:12:18;0.25;;;0.25;;
15764;SDS011;7983;50.744;7.086;2022-12-29T01:15:04;0.75;;;0.40;;
15764;SDS011;7983;50.744;7.086;2022-12-29T01:17:33;0.40;;;0.28;;
15764;SDS011;7983;50.744;7.086;2022-12-29T01:20:02;0.45;;;0.35;;
15764;SDS011;7983;50.744;7.086;2022-12-29T01:22:28;0.32;;;0.30;;
15764;SDS011;7983;50.744;7.086;2022-12-29T01:24:54;0.40;;;0.30;;
15764;SDS011;7983;50.744;7.086;2022-12-29T01:27:22;0.30;;;0.30;;
15764;SDS011;7983;50.744;7.086;2022-12-29T01:29:47;0.50;;;0.40;;
15764;SDS011;7983;50.744;7.086;2022-12-29T01:32:15;0.75;;;0.40;;
15764;SDS011;7983;50.744;7.086;2022-12-29T01:34:43;0.75;;;0.40;;
15764;SDS011;7983;50.744;7.086;2022-12-29T01:37:08;0.63;;;0.30;;
15764;SDS011;7983;50.744;7.086;2022-12-29T01:39:34;0.50;;;0.35;;
15764;SDS011;7983;50.744;7.086;2022-12-29T01:42:02;1.48;;;0.30;;
15764;SDS011;7983;50.744;7.086;2022-12-29T01:47:58;0.28;;;0.20;;
15764;SDS011;7983;50.744;7.086;2022-12-29T01:50:06;0.40;;;0.40;;
15764;SDS011;7983;50.744;7.086;2022-12-29T01:52:41;0.45;;;0.40;;
15764;SDS011;7983;50.744;7.086;2022-12-29T01:55:12;0.40;;;0.40;;
15764;SDS011;7983;50.744;7.086;2022-12-29T01:57:39;1.15;;;0.45;;
15764;SDS011;7983;50.744;7.086;2022-12-29T02:00:09;0.68;;;0.45;;
15764;SDS011;7983;50.744;7.086;2022-12-29T02:02:43;0.73;;;0.52;;
15764;SDS011;7983;50.744;7.086;2022-12-29T02:05:47;0.85;;;0.50;;
15764;SDS011;7983;50.744;7.086;2022-12-29T02:08:09;0.88;;;0.60;;
15764;SDS011;7983;50.744;7.086;2022-12-29T02:10:36;0.45;;;0.40;;
15764;SDS011;7983;50.744;7.086;2022-12-29T02:13:02;0.47;;;0.45;;
15764;SDS011;7983;50.744;7.086;2022-12-29T02:15:34;0.98;;;0.50;;
15764;SDS011;7983;50.744;7.086;2022-12-29T02:18:14;0.80;;;0.50;;
15764;SDS011;7983;50.744;7.086;2022-12-29T02:26:29;0.50;;;0.45;;
15764;SDS011;7983;50.744;7.086;2022-12-29T02:29:27;0.47;;;0.40;;
15764;SDS011;7983;50.744;7.086;2022-12-29T02:32:29;0.57;;;0.50;;
15764;SDS011;7983;50.744;7.086;2022-12-29T02:35:25;0.80;;;0.52;;
15764;SDS011;7983;50.744;7.086;2022-12-29T02:43:38;0.55;;;0.50;;
15764;SDS011;7983;50.744;7.086;2022-12-29T02:46:19;0.30;;;0.30;;
15764;SDS011;7983;50.744;7.086;2022-12-29T02:48:50;0.35;;;0.35;;
15764;SDS011;7983;50.744;7.086;2022-12-29T02:53:43;0.70;;;0.30;;
15764;SDS011;7983;50.744;7.086;2022-12-29T02:56:28;0.90;;;0.30;;
15764;SDS011;7983;50.744;7.086;2022-12-29T02:58:56;0.98;;;0.35;;
15764;SDS011;7983;50.744;7.086;2022-12-29T03:01:37;0.30;;;0.30;;
15764;SDS011;7983;50.744;7.086;2022-12-29T03:09:59;1.13;;;0.82;;
15764;SDS011;7983;50.744;7.086;2022-12-29T03:24:24;0.38;;;0.38;;
15764;SDS011;7983;50.744;7.086;2022-12-29T03:26:55;0.60;;;0.50;;
15764;SDS011;7983;50.744;7.086;2022-12-29T03:29:23;0.85;;;0.60;;
15764;SDS011;7983;50.744;7.086;2022-12-29T03:31:51;1.35;;;0.40;;
15764;SDS011;7983;50.744;7.086;2022-12-29T03:34:20;0.80;;;0.50;;
15764;SDS011;7983;50.744;7.086;2022-12-29T03:36:47;0.73;;;0.40;;
15764;SDS011;7983;50.744;7.086;2022-12-29T03:39:25;0.55;;;0.50;;
15764;SDS011;7983;50.744;7.086;2022-12-29T03:41:56;1.38;;;0.70;;
15764;SDS011;7983;50.744;7.086;2022-12-29T03:44:36;0.50;;;0.50;;
15764;SDS011;7983;50.744;7.086;2022-12-29T03:47:09;0.70;;;0.60;;
15764;SDS011;7983;50.744;7.086;2022-12-29T03:49:36;0.63;;;0.50;;
15764;SDS011;7983;50.744;7.086;2022-12-29T03:52:02;2.05;;;0.80;;
15764;SDS011;7983;50.744;7.086;2022-12-29T03:54:33;0.60;;;0.40;;
15764;SDS011;7983;50.744;7.086;2022-12-29T03:56:59;2.30;;;0.70;;
15764;SDS011;7983;50.744;7.086;2022-12-29T03:59:26;1.23;;;0.50;;
15764;SDS011;7983;50.744;7.086;2022-12-29T04:01:54;0.65;;;0.45;;
15764;SDS011;7983;50.744;7.086;2022-12-29T04:04:20;0.73;;;0.43;;
15764;SDS011;7983;50.744;7.086;2022-12-29T04:06:45;0.60;;;0.47;;
15764;SDS011;7983;50.744;7.086;2022-12-29T04:09:11;0.65;;;0.60;;
15764;SDS011;7983;50.744;7.086;2022-12-29T04:11:37;1.13;;;0.50;;
15764;SDS011;7983;50.744;7.086;2022-12-29T04:14:04;0.75;;;0.60;;
15764;SDS011;7983;50.744;7.086;2022-12-29T04:16:30;1.45;;;0.60;;
15764;SDS011;7983;50.744;7.086;2022-12-29T04:19:03;0.35;;;0.25;;
15764;SDS011;7983;50.744;7.086;2022-12-29T04:21:30;1.20;;;0.60;;
15764;SDS011;7983;50.744;7.086;2022-12-29T04:23:56;1.35;;;0.50;;
15764;SDS011;7983;50.744;7.086;2022-12-29T04:26:22;0.80;;;0.52;;
15764;SDS011;7983;50.744;7.086;2022-12-29T04:28:47;0.50;;;0.40;;
15764;SDS011;7983;50.744;7.086;2022-12-29T04:31:13;0.38;;;0.38;;
15764;SDS011;7983;50.744;7.086;2022-12-29T04:33:39;1.10;;;0.60;;
15764;SDS011;7983;50.744;7.086;2022-12-29T04:36:04;0.47;;;0.35;;
15764;SDS011;7983;50.744;7.086;2022-12-29T04:38:30;1.00;;;0.45;;
15764;SDS011;7983;50.744;7.086;2022-12-29T04:40:58;0.50;;;0.40;;
15764;SDS011;7983;50.744;7.086;2022-12-29T04:43:27;0.60;;;0.38;;
15764;SDS011;7983;50.744;7.086;2022-12-29T04:45:53;0.80;;;0.65;;
15764;SDS011;7983;50.744;7.086;2022-12-29T04:48:19;3.25;;;0.60;;
15764;SDS011;7983;50.744;7.086;2022-12-29T04:50:46;0.90;;;0.50;;
15764;SDS011;7983;50.744;7.086;2022-12-29T04:53:13;1.50;;;0.60;;
15764;SDS011;7983;50.744;7.086;2022-12-29T04:55:42;0.35;;;0.35;;
15764;SDS011;7983;50.744;7.086;2022-12-29T04:58:08;0.30;;;0.30;;
15764;SDS011;7983;50.744;7.086;2022-12-29T05:00:36;0.40;;;0.40;;
15764;SDS011;7983;50.744;7.086;2022-12-29T05:03:01;0.93;;;0.30;;
15764;SDS011;7983;50.744;7.086;2022-12-29T05:05:29;2.25;;;0.40;;
15764;SDS011;7983;50.744;7.086;2022-12-29T05:07:57;0.40;;;0.32;;
15764;SDS011;7983;50.744;7.086;2022-12-29T05:10:25;2.85;;;0.38;;
15764;SDS011;7983;50.744;7.086;2022-12-29T05:12:51;0.43;;;0.30;;
15764;SDS011;7983;50.744;7.086;2022-12-29T05:15:16;1.75;;;0.40;;
15764;SDS011;7983;50.744;7.086;2022-12-29T05:17:42;0.70;;;0.30;;
15764;SDS011;7983;50.744;7.086;2022-12-29T05:20:08;0.40;;;0.40;;
15764;SDS011;7983;50.744;7.086;2022-12-29T05:22:34;0.52;;;0.40;;
15764;SDS011;7983;50.744;7.086;2022-12-29T05:25:02;0.50;;;0.30;;
15764;SDS011;7983;50.744;7.086;2022-12-29T05:27:30;0.30;;;0.28;;
15764;SDS011;7983;50.744;7.086;2022-12-29T05:29:56;2.78;;;0.20;;
15764;SDS011;7983;50.744;7.086;2022-12-29T05:32:24;0.20;;;0.20;;
15764;SDS011;7983;50.744;7.086;2022-12-29T05:34:50;0.50;;;0.40;;
15764;SDS011;7983;50.744;7.086;2022-12-29T05:37:15;0.60;;;0.40;;
15764;SDS011;7983;50.744;7.086;2022-12-29T05:39:41;0.98;;;0.40;;
15764;SDS011;7983;50.744;7.086;2022-12-29T05:42:07;0.82;;;0.50;;
15764;SDS011;7983;50.744;7.086;2022-12-29T05:44:32;0.88;;;0.60;;
15764;SDS011;7983;50.744;7.086;2022-12-29T05:46:58;0.68;;;0.50;;
15764;SDS011;7983;50.744;7.086;2022-12-29T05:49:26;0.85;;;0.47;;
15764;SDS011;7983;50.744;7.086;2022-12-29T05:51:51;0.55;;;0.50;;
15764;SDS011;7983;50.744;7.086;2022-12-29T05:54:17;1.70;;;0.65;;
15764;SDS011;7983;50.744;7.086;2022-12-29T05:56:42;0.60;;;0.60;;
15764;SDS011;7983;50.744;7.086;2022-12-29T05:59:08;0.80;;;0.60;;
15764;SDS011;7983;50.744;7.086;2022-12-29T06:01:36;1.50;;;0.50;;
15764;SDS011;7983;50.744;7.086;2022-12-29T06:04:02;0.75;;;0.47;;
15764;SDS011;7983;50.744;7.086;2022-12-29T06:06:27;0.55;;;0.40;;
15764;SDS011;7983;50.744;7.086;2022-12-29T06:08:55;1.10;;;0.40;;
15764;SDS011;7983;50.744;7.086;2022-12-29T06:11:21;0.75;;;0.45;;
15764;SDS011;7983;50.744;7.086;2022-12-29T06:13:47;0.70;;;0.38;;
15764;SDS011;7983;50.744;7.086;2022-12-29T06:16:12;0.70;;;0.60;;
15764;SDS011;7983;50.744;7.086;2022-12-29T06:18:38;0.98;;;0.50;;
15764;SDS011;7983;50.744;7.086;2022-12-29T06:21:06;0.63;;;0.50;;
15764;SDS011;7983;50.744;7.086;2022-12-29T06:23:34;1.38;;;0.73;;
15764;SDS011;7983;50.744;7.086;2022-12-29T06:25:59;1.23;;;0.60;;
15764;SDS011;7983;50.744;7.086;2022-12-29T06:28:25;1.15;;;0.65;;
15764;SDS011;7983;50.744;7.086;2022-12-29T06:30:51;1.23;;;0.60;;
15764;SDS011;7983;50.744;7.086;2022-12-29T06:33:16;0.93;;;0.70;;
15764;SDS011;7983;50.744;7.086;2022-12-29T06:35:42;0.80;;;0.70;;
15764;SDS011;7983;50.744;7.086;2022-12-29T06:38:08;0.65;;;0.60;;
15764;SDS011;7983;50.744;7.086;2022-12-29T06:40:34;1.23;;;0.63;;
15764;SDS011;7983;50.744;7.086;2022-12-29T06:43:02;1.30;;;0.80;;
15764;SDS011;7983;50.744;7.086;2022-12-29T06:45:29;0.65;;;0.60;;
15764;SDS011;7983;50.744;7.086;2022-12-29T06:47:57;0.90;;;0.70;;
15764;SDS011;7983;50.744;7.086;2022-12-29T06:50:23;2.95;;;1.20;;
15764;SDS011;7983;50.744;7.086;2022-12-29T06:52:48;0.90;;;0.60;;
15764;SDS011;7983;50.744;7.086;2022-12-29T06:55:14;0.50;;;0.50;;
15764;SDS011;7983;50.744;7.086;2022-12-29T06:57:39;1.60;;;0.43;;
15764;SDS011;7983;50.744;7.086;2022-12-29T07:00:05;0.52;;;0.40;;
15764;SDS011;7983;50.744;7.086;2022-12-29T07:02:31;0.65;;;0.43;;
15764;SDS011;7983;50.744;7.086;2022-12-29T07:04:57;0.95;;;0.55;;
15764;SDS011;7983;50.744;7.086;2022-12-29T07:07:23;0.77;;;0.50;;
15764;SDS011;7983;50.744;7.086;2022-12-29T07:09:58;0.52;;;0.30;;
15764;SDS011;7983;50.744;7.086;2022-12-29T07:12:23;0.80;;;0.40;;
15764;SDS011;7983;50.744;7.086;2022-12-29T07:14:49;0.80;;;0.60;;
15764;SDS011;7983;50.744;7.086;2022-12-29T07:17:14;0.50;;;0.30;;
15764;SDS011;7983;50.744;7.086;2022-12-29T07:19:40;0.40;;;0.30;;
15764;SDS011;7983;50.744;7.086;2022-12-29T07:22:06;0.47;;;0.22;;
15764;SDS011;7983;50.744;7.086;2022-12-29T07:24:31;0.90;;;0.20;;
15764;SDS011;7983;50.744;7.086;2022-12-29T07:26:59;0.50;;;0.30;;
15764;SDS011;7983;50.744;7.086;2022-12-29T07:29:25;0.25;;;0.22;;
15764;SDS011;7983;50.744;7.086;2022-12-29T07:31:51;0.50;;;0.30;;
15764;SDS011;7983;50.744;7.086;2022-12-29T07:34:18;0.30;;;0.20;;
15764;SDS011;7983;50.744;7.086;2022-12-29T07:36:46;0.20;;;0.20;;
15764;SDS011;7983;50.744;7.086;2022-12-29T07:39:14;1.17;;;0.32;;
15764;SDS011;7983;50.744;7.086;2022-12-29T07:41:42;0.52;;;0.45;;
15764;SDS011;7983;50.744;7.086;2022-12-29T07:44:08;0.70;;;0.50;;
15764;SDS011;7983;50.744;7.086;2022-12-29T07:46:34;1.58;;;0.43;;
15764;SDS011;7983;50.744;7.086;2022-12-29T07:49:00;1.27;;;0.55;;
15764;SDS011;7983;50.744;7.086;2022-12-29T07:51:25;0.30;;;0.22;;
15764;SDS011;7983;50.744;7.086;2022-12-29T07:53:51;1.25;;;0.35;;
15764;SDS011;7983;50.744;7.086;2022-12-29T07:56:19;0.73;;;0.40;;
15764;SDS011;7983;50.744;7.086;2022-12-29T07:58:46;1.45;;;0.45;;
15764;SDS011;7983;50.744;7.086;2022-12-29T08:01:14;0.90;;;0.43;;
15764;SDS011;7983;50.744;7.086;2022-12-29T08:03:40;0.57;;;0.40;;
15764;SDS011;7983;50.744;7.086;2022-12-29T08:06:08;0.70;;;0.30;;
15764;SDS011;7983;50.744;7.086;2022-12-29T08:08:34;1.10;;;0.50;;
15764;SDS011;7983;50.744;7.086;2022-12-29T08:11:00;1.05;;;0.43;;
15764;SDS011;7983;50.744;7.086;2022-12-29T08:13:28;1.50;;;0.45;;
15764;SDS011;7983;50.744;7.086;2022-12-29T08:15:57;2.10;;;0.85;;
15764;SDS011;7983;50.744;7.086;2022-12-29T08:18:23;0.95;;;0.55;;
15764;SDS011;7983;50.744;7.086;2022-12-29T08:20:49;1.33;;;0.60;;
15764;SDS011;7983;50.744;7.086;2022-12-29T08:23:18;0.75;;;0.47;;
15764;SDS011;7983;50.744;7.086;2022-12-29T08:25:46;3.47;;;0.63;;
15764;SDS011;7983;50.744;7.086;2022-12-29T08:28:13;1.42;;;0.70;;
15764;SDS011;7983;50.744;7.086;2022-12-29T08:30:41;0.85;;;0.50;;
15764;SDS011;7983;50.744;7.086;2022-12-29T08:33:09;1.30;;;0.40;;
15764;SDS011;7983;50.744;7.086;2022-12-29T08:35:39;1.75;;;0.60;;
15764;SDS011;7983;50.744;7.086;2022-12-29T08:38:07;1.40;;;0.52;;
15764;SDS011;7983;50.744;7.086;2022-12-29T08:40:36;1.00;;;0.47;;
15764;SDS011;7983;50.744;7.086;2022-12-29T08:43:02;1.17;;;0.60;;
15764;SDS011;7983;50.744;7.086;2022-12-29T08:45:30;1.38;;;0.70;;
15764;SDS011;7983;50.744;7.086;2022-12-29T08:47:56;2.33;;;0.80;;
15764;SDS011;7983;50.744;7.086;2022-12-29T08:50:23;1.75;;;0.60;;
15764;SDS011;7983;50.744;7.086;2022-12-29T08:52:49;1.60;;;0.52;;
15764;SDS011;7983;50.744;7.086;2022-12-29T08:55:15;1.13;;;0.60;;
15764;SDS011;7983;50.744;7.086;2022-12-29T08:57:41;1.27;;;0.65;;
15764;SDS011;7983;50.744;7.086;2022-12-29T09:00:09;1.60;;;0.50;;
15764;SDS011;7983;50.744;7.086;2022-12-29T09:02:37;1.38;;;0.50;;
15764;SDS011;7983;50.744;7.086;2022-12-29T09:05:03;1.98;;;0.65;;
15764;SDS011;7983;50.744;7.086;2022-12-29T09:07:32;1.52;;;0.60;;
15764;SDS011;7983;50.744;7.086;2022-12-29T09:09:58;1.58;;;0.60;;
15764;SDS011;7983;50.744;7.086;2022-12-29T09:12:23;4.85;;;0.68;;
15764;SDS011;7983;50.744;7.086;2022-12-29T09:14:49;2.47;;;0.65;;
15764;SDS011;7983;50.744;7.086;2022-12-29T09:17:15;1.90;;;0.70;;
15764;SDS011;7983;50.744;7.086;2022-12-29T09:19:58;3.45;;;0.80;;
15764;SDS011;7983;50.744;7.086;2022-12-29T09:22:24;2.38;;;0.77;;
15764;SDS011;7983;50.744;7.086;2022-12-29T09:24:50;1.98;;;0.60;;
15764;SDS011;7983;50.744;7.086;2022-12-29T09:27:15;1.60;;;0.60;;
15764;SDS011;7983;50.744;7.086;2022-12-29T09:29:43;4.90;;;1.05;;
15764;SDS011;7983;50.744;7.086;2022-12-29T09:32:11;4.72;;;1.08;;
15764;SDS011;7983;50.744;7.086;2022-12-29T09:34:36;2.17;;;0.60;;
15764;SDS011;7983;50.744;7.086;2022-12-29T09:37:02;2.50;;;0.98;;
15764;SDS011;7983;50.744;7.086;2022-12-29T09:39:30;2.78;;;0.63;;
15764;SDS011;7983;50.744;7.086;2022-12-29T09:47:11;3.45;;;0.77;;
15764;SDS011;7983;50.744;7.086;2022-12-29T09:49:44;3.20;;;0.90;;
15764;SDS011;7983;50.744;7.086;2022-12-29T09:52:25;2.88;;;0.60;;
15764;SDS011;7983;50.744;7.086;2022-12-29T09:54:59;2.70;;;1.02;;
15764;SDS011;7983;50.744;7.086;2022-12-29T09:57:32;2.47;;;1.10;;
15764;SDS011;7983;50.744;7.086;2022-12-29T10:00:19;2.95;;;0.95;;
15764;SDS011;7983;50.744;7.086;2022-12-29T10:07:58;3.38;;;0.98;;
15764;SDS011;7983;50.744;7.086;2022-12-29T10:10:37;2.50;;;0.80;;
15764;SDS011;7983;50.744;7.086;2022-12-29T10:21:43;2.95;;;0.80;;
15764;SDS011;7983;50.744;7.086;2022-12-29T10:24:04;3.30;;;0.80;;
15764;SDS011;7983;50.744;7.086;2022-12-29T10:26:37;2.40;;;0.70;;
15764;SDS011;7983;50.744;7.086;2022-12-29T10:29:08;1.63;;;0.80;;
15764;SDS011;7983;50.744;7.086;2022-12-29T10:31:45;2.63;;;0.73;;
15764;SDS011;7983;50.744;7.086;2022-12-29T10:34:17;2.00;;;0.80;;
15764;SDS011;7983;50.744;7.086;2022-12-29T10:36:52;1.92;;;0.90;;
15764;SDS011;7983;50.744;7.086;2022-12-29T10:39:39;2.78;;;0.80;;
15764;SDS011;7983;50.744;7.086;2022-12-29T10:45:05;3.55;;;1.00;;
15764;SDS011;7983;50.744;7.086;2022-12-29T10:47:38;1.90;;;0.90;;
15764;SDS011;7983;50.744;7.086;2022-12-29T10:50:26;2.65;;;1.10;;
15764;SDS011;7983;50.744;7.086;2022-12-29T10:52:58;2.97;;;1.00;;
15764;SDS011;7983;50.744;7.086;2022-12-29T10:55:33;2.92;;;1.02;;
15764;SDS011;7983;50.744;7.086;2022-12-29T10:58:02;2.85;;;1.02;;
15764;SDS011;7983;50.744;7.086;2022-12-29T11:00:35;2.97;;;0.88;;
15764;SDS011;7983;50.744;7.086;2022-12-29T11:08:16;3.10;;;0.95;;
15764;SDS011;7983;50.744;7.086;2022-12-29T11:10:49;1.88;;;0.65;;
15764;SDS011;7983;50.744;7.086;2022-12-29T11:13:30;2.15;;;0.70;;
15764;SDS011;7983;50.744;7.086;2022-12-29T11:15:58;3.13;;;1.23;;
15764;SDS011;7983;50.744;7.086;2022-12-29T11:21:25;3.08;;;1.00;;
15764;SDS011;7983;50.744;7.086;2022-12-29T11:24:05;3.13;;;1.00;;
15764;SDS011;7983;50.744;7.086;2022-12-29T11:26:55;3.72;;;1.10;;
15764;SDS011;7983;50.744;7.086;2022-12-29T11:29:43;2.00;;;0.77;;
15764;SDS011;7983;50.744;7.086;2022-12-29T11:32:16;2.90;;;0.80;;
15764;SDS011;7983;50.744;7.086;2022-12-29T11:34:47;3.70;;;1.20;;
15764;SDS011;7983;50.744;7.086;2022-12-29T11:37:18;4.80;;;1.23;;
15764;SDS011;7983;50.744;7.086;2022-12-29T11:39:52;2.65;;;0.88;;
15764;SDS011;7983;50.744;7.086;2022-12-29T11:42:22;3.30;;;1.00;;
15764;SDS011;7983;50.744;7.086;2022-12-29T11:44:57;2.70;;;1.00;;
15764;SDS011;7983;50.744;7.086;2022-12-29T11:47:41;2.47;;;1.10;;
15764;SDS011;7983;50.744;7.086;2022-12-29T11:50:15;3.63;;;1.00;;
15764;SDS011;7983;50.744;7.086;2022-12-29T11:52:57;2.70;;;0.95;;
15764;SDS011;7983;50.744;7.086;2022-12-29T11:55:32;4.55;;;1.33;;
15764;SDS011;7983;50.744;7.086;2022-12-29T11:58:01;3.10;;;1.00;;
15764;SDS011;7983;50.744;7.086;2022-12-29T12:00:30;4.03;;;1.25;;
15764;SDS011;7983;50.744;7.086;2022-12-29T12:05:47;2.72;;;0.80;;
15764;SDS011;7983;50.744;7.086;2022-12-29T12:13:50;3.25;;;1.08;;
15764;SDS011;7983;50.744;7.086;2022-12-29T12:16:29;2.55;;;1.00;;
15764;SDS011;7983;50.744;7.086;2022-12-29T12:19:34;3.70;;;1.10;;
15764;SDS011;7983;50.744;7.086;2022-12-29T12:22:13;2.70;;;0.90;;
15764;SDS011;7983;50.744;7.086;2022-12-29T12:29:56;1.90;;;0.90;;
15764;SDS011;7983;50.744;7.086;2022-12-29T12:34:59;3.45;;;1.00;;
15764;SDS011;7983;50.744;7.086;2022-12-29T12:56:22;2.28;;;0.85;;
15764;SDS011;7983;50.744;7.086;2022-12-29T13:20:27;3.50;;;0.90;;
15764;SDS011;7983;50.744;7.086;2022-12-29T13:28:49;5.30;;;1.10;;
15764;SDS011;7983;50.744;7.086;2022-12-29T13:37:12;3.70;;;1.00;;
15764;SDS011;7983;50.744;7.086;2022-12-29T13:39:49;2.60;;;0.90;;
15764;SDS011;7983;50.744;7.086;2022-12-29T13:42:19;3.92;;;1.30;;
15764;SDS011;7983;50.744;7.086;2022-12-29T13:45:10;2.17;;;0.90;;
15764;SDS011;7983;50.744;7.086;2022-12-29T13:47:46;1.40;;;0.65;;
15764;SDS011;7983;50.744;7.086;2022-12-29T13:50:25;2.60;;;1.02;;
15764;SDS011;7983;50.744;7.086;2022-12-29T14:04:03;2.38;;;0.93;;
15764;SDS011;7983;50.744;7.086;2022-12-29T14:06:37;3.78;;;0.90;;
15764;SDS011;7983;50.744;7.086;2022-12-29T14:11:54;2.45;;;0.90;;
15764;SDS011;7983;50.744;7.086;2022-12-29T14:14:23;2.95;;;0.80;;
15764;SDS011;7983;50.744;7.086;2022-12-29T14:16:53;4.07;;;0.85;;
15764;SDS011;7983;50.744;7.086;2022-12-29T14:19:24;2.28;;;0.90;;
15764;SDS011;7983;50.744;7.086;2022-12-29T14:22:01;2.58;;;1.00;;
15764;SDS011;7983;50.744;7.086;2022-12-29T14:27:00;4.50;;;1.40;;
15764;SDS011;7983;50.744;7.086;2022-12-29T14:29:48;3.15;;;1.00;;
15764;SDS011;7983;50.744;7.086;2022-12-29T14:40:52;2.60;;;1.02;;
15764;SDS011;7983;50.744;7.086;2022-12-29T14:42:53;4.00;;;1.23;;
15764;SDS011;7983;50.744;7.086;2022-12-29T14:47:51;4.03;;;1.45;;
15764;SDS011;7983;50.744;7.086;2022-12-29T14:55:39;5.13;;;1.40;;
15764;SDS011;7983;50.744;7.086;2022-12-29T14:58:12;3.17;;;1.17;;
15764;SDS011;7983;50.744;7.086;2022-12-29T15:00:43;3.15;;;0.90;;
15764;SDS011;7983;50.744;7.086;2022-12-29T15:08:31;2.03;;;0.98;;
15764;SDS011;7983;50.744;7.086;2022-12-29T15:13:40;2.33;;;1.00;;
15764;SDS011;7983;50.744;7.086;2022-12-29T15:19:05;4.15;;;1.10;;
15764;SDS011;7983;50.744;7.086;2022-12-29T15:21:48;2.45;;;0.90;;
15764;SDS011;7983;50.744;7.086;2022-12-29T15:24:14;4.78;;;1.33;;
15764;SDS011;7983;50.744;7.086;2022-12-29T15:26:50;4.53;;;1.10;;
15764;SDS011;7983;50.744;7.086;2022-12-29T15:29:36;2.05;;;0.90;;
15764;SDS011;7983;50.744;7.086;2022-12-29T15:34:44;3.60;;;1.00;;
15764;SDS011;7983;50.744;7.086;2022-12-29T15:37:22;2.92;;;0.90;;
15764;SDS011;7983;50.744;7.086;2022-12-29T15:39:50;3.67;;;0.90;;
15764;SDS011;7983;50.744;7.086;2022-12-29T15:45:13;3.92;;;0.98;;
15764;SDS011;7983;50.744;7.086;2022-12-29T15:47:40;2.55;;;0.88;;
15764;SDS011;7983;50.744;7.086;2022-12-29T15:52:48;3.37;;;0.83;;
15764;SDS011;7983;50.744;7.086;2022-12-29T15:55:33;3.23;;;0.90;;
15764;SDS011;7983;50.744;7.086;2022-12-29T15:58:02;4.75;;;1.15;;
15764;SDS011;7983;50.744;7.086;2022-12-29T16:00:31;3.03;;;1.03;;
15764;SDS011;7983;50.744;7.086;2022-12-29T16:03:02;3.90;;;0.90;;
15764;SDS011;7983;50.744;7.086;2022-12-29T16:05:35;3.57;;;1.03;;
15764;SDS011;7983;50.744;7.086;2022-12-29T16:08:02;4.20;;;1.10;;
15764;SDS011;7983;50.744;7.086;2022-12-29T16:10:43;3.90;;;0.98;;
15764;SDS011;7983;50.744;7.086;2022-12-29T16:16:18;4.10;;;0.90;;
15764;SDS011;7983;50.744;7.086;2022-12-29T16:18:50;2.80;;;1.20;;
15764;SDS011;7983;50.744;7.086;2022-12-29T16:21:19;3.20;;;1.17;;
15764;SDS011;7983;50.744;7.086;2022-12-29T16:23:53;3.97;;;1.20;;
15764;SDS011;7983;50.744;7.086;2022-12-29T16:26:23;4.07;;;1.40;;
15764;SDS011;7983;50.744;7.086;2022-12-29T16:28:50;4.82;;;1.48;;
15764;SDS011;7983;50.744;7.086;2022-12-29T16:31:33;3.33;;;1.40;;
15764;SDS011;7983;50.744;7.086;2022-12-29T16:39:59;3.97;;;1.40;;
15764;SDS011;7983;50.744;7.086;2022-12-29T16:42:56;3.20;;;1.70;;
15764;SDS011;7983;50.744;7.086;2022-12-29T16:50:41;5.67;;;1.60;;
15764;SDS011;7983;50.744;7.086;2022-12-29T16:55:52;3.83;;;1.23;;
15764;SDS011;7983;50.744;7.086;2022-12-29T16:58:22;3.58;;;1.10;;
15764;SDS011;7983;50.744;7.086;2022-12-29T17:00:52;3.67;;;1.30;;
15764;SDS011;7983;50.744;7.086;2022-12-29T17:03:23;4.53;;;1.50;;
15764;SDS011;7983;50.744;7.086;2022-12-29T17:06:00;4.37;;;1.27;;
15764;SDS011;7983;50.744;7.086;2022-12-29T17:08:25;3.23;;;1.10;;
15764;SDS011;7983;50.744;7.086;2022-12-29T17:10:52;3.63;;;1.20;;
15764;SDS011;7983;50.744;7.086;2022-12-29T17:13:41;3.85;;;1.35;;
15764;SDS011;7983;50.744;7.086;2022-12-29T17:16:07;6.43;;;1.95;;
15764;SDS011;7983;50.744;7.086;2022-12-29T17:18:36;5.78;;;1.65;;
15764;SDS011;7983;50.744;7.086;2022-12-29T17:21:02;3.88;;;1.45;;
15764;SDS011;7983;50.744;7.086;2022-12-29T17:23:29;5.57;;;1.65;;
15764;SDS011;7983;50.744;7.086;2022-12-29T17:26:00;8.73;;;1.60;;
15764;SDS011;7983;50.744;7.086;2022-12-29T17:28:30;6.63;;;1.53;;
15764;SDS011;7983;50.744;7.086;2022-12-29T17:31:03;4.70;;;1.38;;
15764;SDS011;7983;50.744;7.086;2022-12-29T17:33:35;5.15;;;1.30;;
15764;SDS011;7983;50.744;7.086;2022-12-29T17:36:02;6.57;;;1.80;;
15764;SDS011;7983;50.744;7.086;2022-12-29T17:38:29;5.10;;;1.30;;
15764;SDS011;7983;50.744;7.086;2022-12-29T17:40:59;5.20;;;1.40;;
15764;SDS011;7983;50.744;7.086;2022-12-29T17:43:27;4.03;;;1.10;;
15764;SDS011;7983;50.744;7.086;2022-12-29T17:45:54;6.20;;;1.98;;
15764;SDS011;7983;50.744;7.086;2022-12-29T17:48:21;3.47;;;1.33;;
15764;SDS011;7983;50.744;7.086;2022-12-29T17:50:47;5.53;;;2.00;;
15764;SDS011;7983;50.744;7.086;2022-12-29T17:53:19;7.00;;;1.80;;
15764;SDS011;7983;50.744;7.086;2022-12-29T17:55:47;5.70;;;1.30;;
15764;SDS011;7983;50.744;7.086;2022-12-29T17:58:17;7.65;;;1.60;;
15764;SDS011;7983;50.744;7.086;2022-12-29T18:00:43;4.63;;;1.40;;
15764;SDS011;7983;50.744;7.086;2022-12-29T18:03:13;4.53;;;1.55;;
15764;SDS011;7983;50.744;7.086;2022-12-29T18:05:45;4.55;;;1.40;;
15764;SDS011;7983;50.744;7.086;2022-12-29T18:08:14;4.45;;;1.30;;
15764;SDS011;7983;50.744;7.086;2022-12-29T18:10:39;4.82;;;1.30;;
15764;SDS011;7983;50.744;7.086;2022-12-29T18:13:14;5.57;;;1.50;;
15764;SDS011;7983;50.744;7.086;2022-12-29T18:15:54;6.80;;;1.48;;
15764;SDS011;7983;50.744;7.086;2022-12-29T18:18:21;5.05;;;1.50;;
15764;SDS011;7983;50.744;7.086;2022-12-29T18:20:50;4.50;;;1.48;;
15764;SDS011;7983;50.744;7.086;2022-12-29T18:23:28;3.97;;;1.40;;
15764;SDS011;7983;50.744;7.086;2022-12-29T18:28:37;4.85;;;1.50;;
15764;SDS011;7983;50.744;7.086;2022-12-29T18:34:00;5.40;;;1.30;;
15764;SDS011;7983;50.744;7.086;2022-12-29T18:36:37;4.45;;;1.50;;
15764;SDS011;7983;50.744;7.086;2022-12-29T18:39:05;5.18;;;1.38;;
15764;SDS011;7983;50.744;7.086;2022-12-29T18:41:31;3.55;;;1.35;;
15764;SDS011;7983;50.744;7.086;2022-12-29T18:43:57;5.22;;;1.23;;
15764;SDS011;7983;50.744;7.086;2022-12-29T18:46:36;4.35;;;1.35;;